Toksovo, Russia
Current Conditions -  °F | °C
As of 8:30 AM on Tuesday 21 Oct 2014 (Local Time) from ULLI Reporting Station
Overcast Overcast  
Wind Chill: 28°   Ceiling: 1800
Heat Index: 36°   Visibility: 6mi
Dew Point: 28°   Wind: 11mph
Humidity: 75%   Direction: 40°NE
Pressure: 29.62"   Gusts: NA
Location:  60.15°N, 30.53°E
Report Text: ULLI 210530Z 04005MPS 9999 OVC018 02/M02 Q1003 6009006910190060 NOSIG
Loading
Personal Weather Stations






























Interactive Weather Map
Tropical Storm Tracking
New forecast layout! Learn more

10-Day Weather Forecast

Advertisements
Track Severe Weather on mobile